Terminal Aerodrome Forecast
Issued by NWS

Home | Current Version | Previous Version | Text Only | Print | Product List | Glossary On
Versions: 1 2 3 4 5 6 7 8 9 10 11 12 13 14 15
000
FTUS46 KLOX 271700
TAFBUR
TAF
KBUR 271738Z 2718/2818 VRB04KT P6SM SKC WS015/07025KT
     FM272100 16006KT P6SM SKC
     FM280200 VRB03KT P6SM SKC=

USA.gov is the U.S. government's official web portal to all federal, state and local government web resources and services.